sensor_id;sensor_type;location;lat;lon;timestamp;temperature;humidity
1716;DHT22;855;48.824;9.220;2023-08-20T00:01:23;24.90;91.60
1716;DHT22;855;48.824;9.220;2023-08-20T00:03:51;24.90;91.60
1716;DHT22;855;48.824;9.220;2023-08-20T00:06:19;24.90;91.60
1716;DHT22;855;48.824;9.220;2023-08-20T00:08:46;24.80;91.60
1716;DHT22;855;48.824;9.220;2023-08-20T00:11:15;24.80;91.80
1716;DHT22;855;48.824;9.220;2023-08-20T00:13:42;24.80;91.90
1716;DHT22;855;48.824;9.220;2023-08-20T00:16:09;24.80;91.80
1716;DHT22;855;48.824;9.220;2023-08-20T00:18:37;24.80;91.90
1716;DHT22;855;48.824;9.220;2023-08-20T00:21:05;24.80;91.80
1716;DHT22;855;48.824;9.220;2023-08-20T00:23:33;24.90;91.40
1716;DHT22;855;48.824;9.220;2023-08-20T00:26:00;25.00;91.20
1716;DHT22;855;48.824;9.220;2023-08-20T00:28:29;25.00;91.10
1716;DHT22;855;48.824;9.220;2023-08-20T00:30:56;25.00;90.90
1716;DHT22;855;48.824;9.220;2023-08-20T00:33:23;25.00;90.90
1716;DHT22;855;48.824;9.220;2023-08-20T00:35:49;25.00;91.10
1716;DHT22;855;48.824;9.220;2023-08-20T00:38:16;25.00;91.10
1716;DHT22;855;48.824;9.220;2023-08-20T00:40:43;24.90;91.20
1716;DHT22;855;48.824;9.220;2023-08-20T00:43:10;24.80;91.50
1716;DHT22;855;48.824;9.220;2023-08-20T00:45:39;24.70;91.80
1716;DHT22;855;48.824;9.220;2023-08-20T00:48:07;24.60;92.20
1716;DHT22;855;48.824;9.220;2023-08-20T00:50:34;24.60;92.50
1716;DHT22;855;48.824;9.220;2023-08-20T00:53:01;24.60;92.50
1716;DHT22;855;48.824;9.220;2023-08-20T00:55:28;24.70;92.40
1716;DHT22;855;48.824;9.220;2023-08-20T00:57:55;24.70;92.30
1716;DHT22;855;48.824;9.220;2023-08-20T01:00:23;24.70;92.20
1716;DHT22;855;48.824;9.220;2023-08-20T01:02:52;24.70;92.20
1716;DHT22;855;48.824;9.220;2023-08-20T01:05:19;24.70;92.10
1716;DHT22;855;48.824;9.220;2023-08-20T01:08:00;24.70;92.10
1716;DHT22;855;48.824;9.220;2023-08-20T01:10:38;24.80;91.90
1716;DHT22;855;48.824;9.220;2023-08-20T01:13:06;24.80;91.80
1716;DHT22;855;48.824;9.220;2023-08-20T01:15:33;24.70;92.00
1716;DHT22;855;48.824;9.220;2023-08-20T01:18:02;24.50;92.50
1716;DHT22;855;48.824;9.220;2023-08-20T01:20:33;24.50;92.60
1716;DHT22;855;48.824;9.220;2023-08-20T01:23:21;24.60;92.60
1716;DHT22;855;48.824;9.220;2023-08-20T01:26:07;24.60;92.40
1716;DHT22;855;48.824;9.220;2023-08-20T01:28:38;24.60;92.30
1716;DHT22;855;48.824;9.220;2023-08-20T01:31:06;24.70;92.30
1716;DHT22;855;48.824;9.220;2023-08-20T01:33:34;24.70;92.20
1716;DHT22;855;48.824;9.220;2023-08-20T01:36:01;24.70;92.20
1716;DHT22;855;48.824;9.220;2023-08-20T01:38:34;24.50;92.50
1716;DHT22;855;48.824;9.220;2023-08-20T01:41:00;24.40;93.10
1716;DHT22;855;48.824;9.220;2023-08-20T01:43:27;24.40;93.20
1716;DHT22;855;48.824;9.220;2023-08-20T01:45:56;24.40;93.10
1716;DHT22;855;48.824;9.220;2023-08-20T01:48:22;24.40;92.90
1716;DHT22;855;48.824;9.220;2023-08-20T01:50:49;24.40;93.00
1716;DHT22;855;48.824;9.220;2023-08-20T01:53:16;24.30;93.20
1716;DHT22;855;48.824;9.220;2023-08-20T01:55:43;24.30;93.20
1716;DHT22;855;48.824;9.220;2023-08-20T01:58:10;24.30;93.30
1716;DHT22;855;48.824;9.220;2023-08-20T02:00:37;24.30;93.20
1716;DHT22;855;48.824;9.220;2023-08-20T02:03:05;24.30;93.10
1716;DHT22;855;48.824;9.220;2023-08-20T02:05:32;24.30;93.10
1716;DHT22;855;48.824;9.220;2023-08-20T02:07:58;24.10;93.60
1716;DHT22;855;48.824;9.220;2023-08-20T02:10:25;24.10;94.10
1716;DHT22;855;48.824;9.220;2023-08-20T02:12:52;24.00;94.30
1716;DHT22;855;48.824;9.220;2023-08-20T02:15:19;24.00;94.40
1716;DHT22;855;48.824;9.220;2023-08-20T02:17:46;24.10;94.30
1716;DHT22;855;48.824;9.220;2023-08-20T02:20:14;24.10;94.10
1716;DHT22;855;48.824;9.220;2023-08-20T02:22:41;24.20;93.80
1716;DHT22;855;48.824;9.220;2023-08-20T02:25:08;24.20;93.60
1716;DHT22;855;48.824;9.220;2023-08-20T02:27:34;24.10;93.80
1716;DHT22;855;48.824;9.220;2023-08-20T02:30:01;24.20;93.60
1716;DHT22;855;48.824;9.220;2023-08-20T02:32:28;24.20;93.40
1716;DHT22;855;48.824;9.220;2023-08-20T02:34:57;24.20;93.30
1716;DHT22;855;48.824;9.220;2023-08-20T02:37:25;24.20;93.20
1716;DHT22;855;48.824;9.220;2023-08-20T02:39:52;24.20;93.20
1716;DHT22;855;48.824;9.220;2023-08-20T02:42:19;24.20;93.10
1716;DHT22;855;48.824;9.220;2023-08-20T02:44:46;24.20;93.10
1716;DHT22;855;48.824;9.220;2023-08-20T02:47:12;24.20;93.10
1716;DHT22;855;48.824;9.220;2023-08-20T02:49:39;24.20;92.70
1716;DHT22;855;48.824;9.220;2023-08-20T02:52:06;24.10;93.00
1716;DHT22;855;48.824;9.220;2023-08-20T02:54:34;24.00;93.40
1716;DHT22;855;48.824;9.220;2023-08-20T02:57:01;23.90;93.70
1716;DHT22;855;48.824;9.220;2023-08-20T02:59:28;23.90;94.00
1716;DHT22;855;48.824;9.220;2023-08-20T03:01:55;23.90;94.00
1716;DHT22;855;48.824;9.220;2023-08-20T03:04:21;23.90;93.90
1716;DHT22;855;48.824;9.220;2023-08-20T03:06:48;24.00;93.70
1716;DHT22;855;48.824;9.220;2023-08-20T03:09:15;23.90;93.50
1716;DHT22;855;48.824;9.220;2023-08-20T03:11:43;23.90;93.70
1716;DHT22;855;48.824;9.220;2023-08-20T03:14:10;23.90;93.90
1716;DHT22;855;48.824;9.220;2023-08-20T03:16:37;23.90;93.90
1716;DHT22;855;48.824;9.220;2023-08-20T03:19:04;24.00;93.80
1716;DHT22;855;48.824;9.220;2023-08-20T03:21:31;24.00;93.30
1716;DHT22;855;48.824;9.220;2023-08-20T03:23:57;24.00;93.30
1716;DHT22;855;48.824;9.220;2023-08-20T03:26:24;23.90;93.40
1716;DHT22;855;48.824;9.220;2023-08-20T03:28:52;24.00;93.40
1716;DHT22;855;48.824;9.220;2023-08-20T03:31:19;24.00;93.20
1716;DHT22;855;48.824;9.220;2023-08-20T03:33:46;24.00;93.20
1716;DHT22;855;48.824;9.220;2023-08-20T03:36:13;24.00;92.90
1716;DHT22;855;48.824;9.220;2023-08-20T03:38:40;24.00;93.00
1716;DHT22;855;48.824;9.220;2023-08-20T03:41:06;23.90;93.40
1716;DHT22;855;48.824;9.220;2023-08-20T03:43:33;23.90;93.40
1716;DHT22;855;48.824;9.220;2023-08-20T03:46:02;23.90;93.30
1716;DHT22;855;48.824;9.220;2023-08-20T03:48:29;23.80;92.90
1716;DHT22;855;48.824;9.220;2023-08-20T03:50:56;23.70;92.80
1716;DHT22;855;48.824;9.220;2023-08-20T03:53:23;23.70;93.00
1716;DHT22;855;48.824;9.220;2023-08-20T03:55:50;23.70;93.10
1716;DHT22;855;48.824;9.220;2023-08-20T03:58:17;23.80;92.90
1716;DHT22;855;48.824;9.220;2023-08-20T04:00:44;23.80;92.80
1716;DHT22;855;48.824;9.220;2023-08-20T04:03:12;23.80;92.60
1716;DHT22;855;48.824;9.220;2023-08-20T04:05:39;23.80;92.50
1716;DHT22;855;48.824;9.220;2023-08-20T04:08:07;23.80;92.50
1716;DHT22;855;48.824;9.220;2023-08-20T04:10:33;23.80;92.40
1716;DHT22;855;48.824;9.220;2023-08-20T04:13:00;23.80;92.50
1716;DHT22;855;48.824;9.220;2023-08-20T04:15:27;23.80;92.40
1716;DHT22;855;48.824;9.220;2023-08-20T04:17:54;23.80;92.30
1716;DHT22;855;48.824;9.220;2023-08-20T04:20:22;23.70;92.60
1716;DHT22;855;48.824;9.220;2023-08-20T04:22:49;23.70;92.90
1716;DHT22;855;48.824;9.220;2023-08-20T04:25:16;23.70;92.90
1716;DHT22;855;48.824;9.220;2023-08-20T04:27:43;23.70;92.90
1716;DHT22;855;48.824;9.220;2023-08-20T04:30:11;23.70;93.20
1716;DHT22;855;48.824;9.220;2023-08-20T04:32:37;23.70;93.10
1716;DHT22;855;48.824;9.220;2023-08-20T04:35:05;23.70;93.10
1716;DHT22;855;48.824;9.220;2023-08-20T04:37:33;23.70;93.10
1716;DHT22;855;48.824;9.220;2023-08-20T04:40:00;23.70;92.90
1716;DHT22;855;48.824;9.220;2023-08-20T04:42:27;23.70;93.00
1716;DHT22;855;48.824;9.220;2023-08-20T04:44:54;23.70;93.00
1716;DHT22;855;48.824;9.220;2023-08-20T04:47:21;23.70;92.80
1716;DHT22;855;48.824;9.220;2023-08-20T04:49:48;23.70;93.20
1716;DHT22;855;48.824;9.220;2023-08-20T04:52:14;23.70;93.40
1716;DHT22;855;48.824;9.220;2023-08-20T04:54:43;23.70;93.30
1716;DHT22;855;48.824;9.220;2023-08-20T04:57:09;23.80;92.70
1716;DHT22;855;48.824;9.220;2023-08-20T04:59:36;23.80;92.70
1716;DHT22;855;48.824;9.220;2023-08-20T05:02:03;23.80;92.90
1716;DHT22;855;48.824;9.220;2023-08-20T05:04:30;23.80;92.80
1716;DHT22;855;48.824;9.220;2023-08-20T05:06:57;23.90;92.70
1716;DHT22;855;48.824;9.220;2023-08-20T05:09:25;24.10;92.30
1716;DHT22;855;48.824;9.220;2023-08-20T05:11:53;24.10;92.00
1716;DHT22;855;48.824;9.220;2023-08-20T05:14:20;24.20;92.20
1716;DHT22;855;48.824;9.220;2023-08-20T05:16:46;24.20;92.20
1716;DHT22;855;48.824;9.220;2023-08-20T05:19:13;24.40;91.90
1716;DHT22;855;48.824;9.220;2023-08-20T05:21:40;24.60;91.50
1716;DHT22;855;48.824;9.220;2023-08-20T05:24:07;24.70;90.70
1716;DHT22;855;48.824;9.220;2023-08-20T05:26:34;24.60;90.60
1716;DHT22;855;48.824;9.220;2023-08-20T05:29:03;24.40;90.70
1716;DHT22;855;48.824;9.220;2023-08-20T05:31:30;24.40;90.70
1716;DHT22;855;48.824;9.220;2023-08-20T05:33:56;24.50;90.60
1716;DHT22;855;48.824;9.220;2023-08-20T05:36:23;24.70;90.10
1716;DHT22;855;48.824;9.220;2023-08-20T05:38:50;24.90;89.30
1716;DHT22;855;48.824;9.220;2023-08-20T05:41:17;25.20;88.20
1716;DHT22;855;48.824;9.220;2023-08-20T05:43:44;25.40;86.50
1716;DHT22;855;48.824;9.220;2023-08-20T05:46:12;25.30;87.00
1716;DHT22;855;48.824;9.220;2023-08-20T05:48:38;25.50;86.70
1716;DHT22;855;48.824;9.220;2023-08-20T05:51:05;25.70;86.00
1716;DHT22;855;48.824;9.220;2023-08-20T05:53:32;25.90;85.30
1716;DHT22;855;48.824;9.220;2023-08-20T05:55:59;26.10;85.00
1716;DHT22;855;48.824;9.220;2023-08-20T05:58:26;26.20;84.20
1716;DHT22;855;48.824;9.220;2023-08-20T06:00:53;26.40;83.20
1716;DHT22;855;48.824;9.220;2023-08-20T06:03:21;26.40;82.90
1716;DHT22;855;48.824;9.220;2023-08-20T06:05:47;26.50;83.00
1716;DHT22;855;48.824;9.220;2023-08-20T06:08:14;26.50;83.00
1716;DHT22;855;48.824;9.220;2023-08-20T06:10:41;26.60;82.70
1716;DHT22;855;48.824;9.220;2023-08-20T06:13:08;26.80;82.40
1716;DHT22;855;48.824;9.220;2023-08-20T06:15:35;27.00;81.60
1716;DHT22;855;48.824;9.220;2023-08-20T06:18:01;27.30;81.10
1716;DHT22;855;48.824;9.220;2023-08-20T06:20:30;27.50;79.90
1716;DHT22;855;48.824;9.220;2023-08-20T06:22:56;27.80;78.40
1716;DHT22;855;48.824;9.220;2023-08-20T06:25:23;27.90;78.60
1716;DHT22;855;48.824;9.220;2023-08-20T06:27:50;27.80;78.40
1716;DHT22;855;48.824;9.220;2023-08-20T06:30:17;27.80;78.60
1716;DHT22;855;48.824;9.220;2023-08-20T06:32:44;27.90;78.40
1716;DHT22;855;48.824;9.220;2023-08-20T06:35:11;27.80;78.30
1716;DHT22;855;48.824;9.220;2023-08-20T06:37:41;27.90;77.90
1716;DHT22;855;48.824;9.220;2023-08-20T06:40:08;28.00;77.10
1716;DHT22;855;48.824;9.220;2023-08-20T06:42:35;28.00;77.50
1716;DHT22;855;48.824;9.220;2023-08-20T06:45:03;28.00;77.60
1716;DHT22;855;48.824;9.220;2023-08-20T06:47:29;28.00;77.60
1716;DHT22;855;48.824;9.220;2023-08-20T06:49:56;28.00;77.90
1716;DHT22;855;48.824;9.220;2023-08-20T06:52:23;28.20;77.60
1716;DHT22;855;48.824;9.220;2023-08-20T06:54:51;28.40;77.10
1716;DHT22;855;48.824;9.220;2023-08-20T06:57:18;28.50;76.70
1716;DHT22;855;48.824;9.220;2023-08-20T06:59:45;28.50;76.60
1716;DHT22;855;48.824;9.220;2023-08-20T07:02:11;28.40;77.60
1716;DHT22;855;48.824;9.220;2023-08-20T07:04:39;28.50;77.10
1716;DHT22;855;48.824;9.220;2023-08-20T07:07:06;28.50;77.10
1716;DHT22;855;48.824;9.220;2023-08-20T07:09:33;28.70;78.00
1716;DHT22;855;48.824;9.220;2023-08-20T07:12:02;28.60;77.50
1716;DHT22;855;48.824;9.220;2023-08-20T07:14:29;28.70;77.40
1716;DHT22;855;48.824;9.220;2023-08-20T07:16:55;28.60;77.00
1716;DHT22;855;48.824;9.220;2023-08-20T07:19:22;28.70;77.20
1716;DHT22;855;48.824;9.220;2023-08-20T07:21:49;28.60;77.00
1716;DHT22;855;48.824;9.220;2023-08-20T07:24:16;28.70;77.10
1716;DHT22;855;48.824;9.220;2023-08-20T07:26:43;28.80;77.40
1716;DHT22;855;48.824;9.220;2023-08-20T07:29:11;28.70;77.10
1716;DHT22;855;48.824;9.220;2023-08-20T07:31:38;28.70;77.60
1716;DHT22;855;48.824;9.220;2023-08-20T07:34:05;28.70;77.40
1716;DHT22;855;48.824;9.220;2023-08-20T07:36:32;28.90;77.50
1716;DHT22;855;48.824;9.220;2023-08-20T07:38:59;29.00;76.70
1716;DHT22;855;48.824;9.220;2023-08-20T07:41:26;29.00;76.70
1716;DHT22;855;48.824;9.220;2023-08-20T07:43:53;29.10;77.00
1716;DHT22;855;48.824;9.220;2023-08-20T07:46:21;29.20;76.40
1716;DHT22;855;48.824;9.220;2023-08-20T07:48:48;29.30;75.60
1716;DHT22;855;48.824;9.220;2023-08-20T07:51:15;29.40;75.40
1716;DHT22;855;48.824;9.220;2023-08-20T07:53:42;29.40;75.40
1716;DHT22;855;48.824;9.220;2023-08-20T07:56:08;29.50;75.40
1716;DHT22;855;48.824;9.220;2023-08-20T07:58:35;29.50;75.50
1716;DHT22;855;48.824;9.220;2023-08-20T08:01:02;29.40;75.90
1716;DHT22;855;48.824;9.220;2023-08-20T08:03:30;29.20;76.80
1716;DHT22;855;48.824;9.220;2023-08-20T08:05:57;29.20;77.10
1716;DHT22;855;48.824;9.220;2023-08-20T08:08:24;29.10;77.10
1716;DHT22;855;48.824;9.220;2023-08-20T08:10:51;29.40;77.00
1716;DHT22;855;48.824;9.220;2023-08-20T08:13:20;29.60;76.30
1716;DHT22;855;48.824;9.220;2023-08-20T08:15:47;30.00;75.10
1716;DHT22;855;48.824;9.220;2023-08-20T08:18:14;30.10;74.60
1716;DHT22;855;48.824;9.220;2023-08-20T08:20:42;30.20;74.50
1716;DHT22;855;48.824;9.220;2023-08-20T08:23:09;30.20;74.10
1716;DHT22;855;48.824;9.220;2023-08-20T08:25:36;30.30;73.90
1716;DHT22;855;48.824;9.220;2023-08-20T08:28:04;30.40;73.10
1716;DHT22;855;48.824;9.220;2023-08-20T08:30:31;30.40;73.30
1716;DHT22;855;48.824;9.220;2023-08-20T08:33:00;30.60;73.10
1716;DHT22;855;48.824;9.220;2023-08-20T08:35:27;30.70;72.50
1716;DHT22;855;48.824;9.220;2023-08-20T08:37:55;30.60;72.60
1716;DHT22;855;48.824;9.220;2023-08-20T08:40:24;30.80;72.10
1716;DHT22;855;48.824;9.220;2023-08-20T08:42:54;30.80;72.10
1716;DHT22;855;48.824;9.220;2023-08-20T08:45:21;30.70;72.10
1716;DHT22;855;48.824;9.220;2023-08-20T08:47:49;30.60;72.60
1716;DHT22;855;48.824;9.220;2023-08-20T08:50:16;30.50;72.10
1716;DHT22;855;48.824;9.220;2023-08-20T08:52:45;30.50;72.90
1716;DHT22;855;48.824;9.220;2023-08-20T08:55:14;30.40;73.00
1716;DHT22;855;48.824;9.220;2023-08-20T08:57:41;30.60;73.40
1716;DHT22;855;48.824;9.220;2023-08-20T09:00:08;30.70;72.60
1716;DHT22;855;48.824;9.220;2023-08-20T09:02:35;31.00;72.20
1716;DHT22;855;48.824;9.220;2023-08-20T09:05:02;30.80;72.10
1716;DHT22;855;48.824;9.220;2023-08-20T09:07:31;31.00;72.30
1716;DHT22;855;48.824;9.220;2023-08-20T09:09:59;30.90;71.80
1716;DHT22;855;48.824;9.220;2023-08-20T09:12:27;30.70;73.00
1716;DHT22;855;48.824;9.220;2023-08-20T09:14:54;30.40;73.80
1716;DHT22;855;48.824;9.220;2023-08-20T09:17:26;30.60;73.30
1716;DHT22;855;48.824;9.220;2023-08-20T09:19:54;30.90;72.90
1716;DHT22;855;48.824;9.220;2023-08-20T09:22:22;31.10;72.30
1716;DHT22;855;48.824;9.220;2023-08-20T09:24:52;31.30;71.60
1716;DHT22;855;48.824;9.220;2023-08-20T09:27:19;31.50;71.30
1716;DHT22;855;48.824;9.220;2023-08-20T09:29:49;31.60;70.00
1716;DHT22;855;48.824;9.220;2023-08-20T09:32:18;31.90;69.60
1716;DHT22;855;48.824;9.220;2023-08-20T09:34:45;32.00;68.00
1716;DHT22;855;48.824;9.220;2023-08-20T09:37:13;31.80;66.90
1716;DHT22;855;48.824;9.220;2023-08-20T09:39:41;31.80;67.20
1716;DHT22;855;48.824;9.220;2023-08-20T09:42:09;32.00;68.60
1716;DHT22;855;48.824;9.220;2023-08-20T09:44:37;32.10;66.30
1716;DHT22;855;48.824;9.220;2023-08-20T09:47:08;31.70;66.10
1716;DHT22;855;48.824;9.220;2023-08-20T09:49:39;31.80;66.50
1716;DHT22;855;48.824;9.220;2023-08-20T09:52:09;32.00;66.50
1716;DHT22;855;48.824;9.220;2023-08-20T09:54:51;32.10;64.90
1716;DHT22;855;48.824;9.220;2023-08-20T09:57:28;32.00;66.10
1716;DHT22;855;48.824;9.220;2023-08-20T09:59:59;32.10;65.10
1716;DHT22;855;48.824;9.220;2023-08-20T10:02:28;32.20;63.50
1716;DHT22;855;48.824;9.220;2023-08-20T10:04:55;32.30;63.80
1716;DHT22;855;48.824;9.220;2023-08-20T10:07:23;32.50;64.20
1716;DHT22;855;48.824;9.220;2023-08-20T10:09:51;32.60;64.40
1716;DHT22;855;48.824;9.220;2023-08-20T10:12:18;32.70;62.40
1716;DHT22;855;48.824;9.220;2023-08-20T10:14:45;33.00;61.50
1716;DHT22;855;48.824;9.220;2023-08-20T10:17:12;33.00;61.50
1716;DHT22;855;48.824;9.220;2023-08-20T10:19:42;32.50;62.60
1716;DHT22;855;48.824;9.220;2023-08-20T10:22:09;32.50;63.10
1716;DHT22;855;48.824;9.220;2023-08-20T10:24:48;32.50;61.80
1716;DHT22;855;48.824;9.220;2023-08-20T10:27:25;32.80;62.20
1716;DHT22;855;48.824;9.220;2023-08-20T10:29:53;32.90;61.20
1716;DHT22;855;48.824;9.220;2023-08-20T10:32:20;32.90;60.10
1716;DHT22;855;48.824;9.220;2023-08-20T10:34:51;33.10;59.40
1716;DHT22;855;48.824;9.220;2023-08-20T10:37:26;33.20;59.90
1716;DHT22;855;48.824;9.220;2023-08-20T10:39:54;33.20;58.90
1716;DHT22;855;48.824;9.220;2023-08-20T10:42:25;32.70;59.50
1716;DHT22;855;48.824;9.220;2023-08-20T10:44:59;32.70;59.80
1716;DHT22;855;48.824;9.220;2023-08-20T10:47:42;32.80;59.30
1716;DHT22;855;48.824;9.220;2023-08-20T10:50:11;32.80;60.10
1716;DHT22;855;48.824;9.220;2023-08-20T10:52:46;32.80;58.40
1716;DHT22;855;48.824;9.220;2023-08-20T10:55:13;32.90;59.50
1716;DHT22;855;48.824;9.220;2023-08-20T10:57:41;33.10;59.40
1716;DHT22;855;48.824;9.220;2023-08-20T11:00:09;33.30;58.70
1716;DHT22;855;48.824;9.220;2023-08-20T11:02:37;33.00;59.30
1716;DHT22;855;48.824;9.220;2023-08-20T11:05:17;33.20;59.90
1716;DHT22;855;48.824;9.220;2023-08-20T11:07:45;33.30;57.00
1716;DHT22;855;48.824;9.220;2023-08-20T11:10:13;33.10;57.30
1716;DHT22;855;48.824;9.220;2023-08-20T11:12:40;33.00;56.90
1716;DHT22;855;48.824;9.220;2023-08-20T11:15:09;33.00;56.90
1716;DHT22;855;48.824;9.220;2023-08-20T11:17:41;32.90;56.00
1716;DHT22;855;48.824;9.220;2023-08-20T11:20:08;33.10;56.20
1716;DHT22;855;48.824;9.220;2023-08-20T11:22:38;33.10;55.00
1716;DHT22;855;48.824;9.220;2023-08-20T11:25:05;33.20;54.40
1716;DHT22;855;48.824;9.220;2023-08-20T11:27:32;33.30;55.00
1716;DHT22;855;48.824;9.220;2023-08-20T11:30:00;33.40;54.20
1716;DHT22;855;48.824;9.220;2023-08-20T11:32:30;33.60;53.20
1716;DHT22;855;48.824;9.220;2023-08-20T11:34:57;33.60;51.80
1716;DHT22;855;48.824;9.220;2023-08-20T11:37:24;33.40;53.90
1716;DHT22;855;48.824;9.220;2023-08-20T11:39:52;33.60;54.30
1716;DHT22;855;48.824;9.220;2023-08-20T11:42:19;33.70;53.60
1716;DHT22;855;48.824;9.220;2023-08-20T11:44:47;33.70;54.20
1716;DHT22;855;48.824;9.220;2023-08-20T11:47:15;33.70;55.20
1716;DHT22;855;48.824;9.220;2023-08-20T11:49:43;33.60;54.80
1716;DHT22;855;48.824;9.220;2023-08-20T11:52:10;33.50;54.80
1716;DHT22;855;48.824;9.220;2023-08-20T11:54:38;33.80;54.20
1716;DHT22;855;48.824;9.220;2023-08-20T11:57:07;33.90;52.90
1716;DHT22;855;48.824;9.220;2023-08-20T11:59:34;33.60;52.10
1716;DHT22;855;48.824;9.220;2023-08-20T12:02:01;33.50;52.80
1716;DHT22;855;48.824;9.220;2023-08-20T12:04:30;33.50;53.40
1716;DHT22;855;48.824;9.220;2023-08-20T12:07:04;33.70;53.40
1716;DHT22;855;48.824;9.220;2023-08-20T12:09:31;33.90;52.70
1716;DHT22;855;48.824;9.220;2023-08-20T12:11:59;34.00;53.10
1716;DHT22;855;48.824;9.220;2023-08-20T12:14:27;34.00;51.80
1716;DHT22;855;48.824;9.220;2023-08-20T12:16:54;34.10;52.70
1716;DHT22;855;48.824;9.220;2023-08-20T12:19:21;33.90;51.80
1716;DHT22;855;48.824;9.220;2023-08-20T12:21:48;34.20;52.20
1716;DHT22;855;48.824;9.220;2023-08-20T12:24:15;34.10;51.60
1716;DHT22;855;48.824;9.220;2023-08-20T12:26:44;34.10;51.30
1716;DHT22;855;48.824;9.220;2023-08-20T12:29:11;34.40;50.80
1716;DHT22;855;48.824;9.220;2023-08-20T12:31:40;34.60;50.90
1716;DHT22;855;48.824;9.220;2023-08-20T12:34:07;34.80;50.70
1716;DHT22;855;48.824;9.220;2023-08-20T12:36:34;34.90;52.80
1716;DHT22;855;48.824;9.220;2023-08-20T12:39:01;35.10;51.90
1716;DHT22;855;48.824;9.220;2023-08-20T12:41:29;35.10;51.30
1716;DHT22;855;48.824;9.220;2023-08-20T12:43:56;35.00;49.70
1716;DHT22;855;48.824;9.220;2023-08-20T12:46:22;34.70;50.20
1716;DHT22;855;48.824;9.220;2023-08-20T12:48:50;34.70;49.80
1716;DHT22;855;48.824;9.220;2023-08-20T12:51:17;34.50;50.30
1716;DHT22;855;48.824;9.220;2023-08-20T12:53:44;34.40;49.90
1716;DHT22;855;48.824;9.220;2023-08-20T12:56:12;34.60;49.10
1716;DHT22;855;48.824;9.220;2023-08-20T12:58:40;34.70;48.40
1716;DHT22;855;48.824;9.220;2023-08-20T13:01:06;34.70;49.20
1716;DHT22;855;48.824;9.220;2023-08-20T13:03:34;34.50;48.40
1716;DHT22;855;48.824;9.220;2023-08-20T13:06:04;34.40;49.30
1716;DHT22;855;48.824;9.220;2023-08-20T13:08:31;34.40;49.30
1716;DHT22;855;48.824;9.220;2023-08-20T13:10:59;34.50;48.90
1716;DHT22;855;48.824;9.220;2023-08-20T13:13:26;34.70;48.40
1716;DHT22;855;48.824;9.220;2023-08-20T13:15:54;34.70;48.40
1716;DHT22;855;48.824;9.220;2023-08-20T13:18:21;34.80;48.30
1716;DHT22;855;48.824;9.220;2023-08-20T13:20:51;34.80;48.40
1716;DHT22;855;48.824;9.220;2023-08-20T13:23:19;34.50;48.60
1716;DHT22;855;48.824;9.220;2023-08-20T13:25:46;34.30;49.20
1716;DHT22;855;48.824;9.220;2023-08-20T13:28:13;34.30;50.70
1716;DHT22;855;48.824;9.220;2023-08-20T13:30:40;34.40;50.90
1716;DHT22;855;48.824;9.220;2023-08-20T13:33:06;34.50;51.30
1716;DHT22;855;48.824;9.220;2023-08-20T13:35:33;34.40;51.40
1716;DHT22;855;48.824;9.220;2023-08-20T13:38:00;34.80;52.20
1716;DHT22;855;48.824;9.220;2023-08-20T13:40:29;35.00;52.60
1716;DHT22;855;48.824;9.220;2023-08-20T13:42:56;35.00;50.20
1716;DHT22;855;48.824;9.220;2023-08-20T13:45:23;34.90;50.10
1716;DHT22;855;48.824;9.220;2023-08-20T13:47:50;34.90;50.80
1716;DHT22;855;48.824;9.220;2023-08-20T13:50:16;35.10;50.60
1716;DHT22;855;48.824;9.220;2023-08-20T13:52:43;34.80;52.10
1716;DHT22;855;48.824;9.220;2023-08-20T13:55:10;34.50;53.10
1716;DHT22;855;48.824;9.220;2023-08-20T13:57:39;34.40;52.90
1716;DHT22;855;48.824;9.220;2023-08-20T14:00:07;34.30;54.20
1716;DHT22;855;48.824;9.220;2023-08-20T14:02:36;34.30;54.00
1716;DHT22;855;48.824;9.220;2023-08-20T14:05:03;34.40;53.90
1716;DHT22;855;48.824;9.220;2023-08-20T14:07:30;34.60;53.80
1716;DHT22;855;48.824;9.220;2023-08-20T14:09:58;34.70;53.90
1716;DHT22;855;48.824;9.220;2023-08-20T14:12:25;34.70;53.80
1716;DHT22;855;48.824;9.220;2023-08-20T14:14:53;34.80;52.90
1716;DHT22;855;48.824;9.220;2023-08-20T14:17:20;34.80;52.30
1716;DHT22;855;48.824;9.220;2023-08-20T14:19:47;34.70;52.10
1716;DHT22;855;48.824;9.220;2023-08-20T14:22:14;34.70;51.80
1716;DHT22;855;48.824;9.220;2023-08-20T14:24:41;34.70;51.40
1716;DHT22;855;48.824;9.220;2023-08-20T14:27:07;34.70;50.40
1716;DHT22;855;48.824;9.220;2023-08-20T14:29:35;34.80;50.60
1716;DHT22;855;48.824;9.220;2023-08-20T14:32:03;34.80;50.70
1716;DHT22;855;48.824;9.220;2023-08-20T14:34:30;34.60;51.40
1716;DHT22;855;48.824;9.220;2023-08-20T14:36:57;34.70;51.80
1716;DHT22;855;48.824;9.220;2023-08-20T14:39:24;34.80;51.70
1716;DHT22;855;48.824;9.220;2023-08-20T14:41:51;34.80;51.60
1716;DHT22;855;48.824;9.220;2023-08-20T14:44:18;34.90;51.40
1716;DHT22;855;48.824;9.220;2023-08-20T14:46:44;34.90;50.80
1716;DHT22;855;48.824;9.220;2023-08-20T14:49:12;35.00;51.90
1716;DHT22;855;48.824;9.220;2023-08-20T14:51:39;34.80;52.40
1716;DHT22;855;48.824;9.220;2023-08-20T14:54:06;34.80;52.70
1716;DHT22;855;48.824;9.220;2023-08-20T14:56:33;34.80;51.60
1716;DHT22;855;48.824;9.220;2023-08-20T14:59:00;34.70;50.90
1716;DHT22;855;48.824;9.220;2023-08-20T15:01:26;34.90;51.80
1716;DHT22;855;48.824;9.220;2023-08-20T15:03:53;34.90;51.30
1716;DHT22;855;48.824;9.220;2023-08-20T15:06:21;34.90;51.80
1716;DHT22;855;48.824;9.220;2023-08-20T15:08:50;34.90;50.20
1716;DHT22;855;48.824;9.220;2023-08-20T15:11:17;34.80;50.70
1716;DHT22;855;48.824;9.220;2023-08-20T15:13:43;34.40;50.80
1716;DHT22;855;48.824;9.220;2023-08-20T15:16:10;34.30;51.30
1716;DHT22;855;48.824;9.220;2023-08-20T15:18:37;34.20;50.80
1716;DHT22;855;48.824;9.220;2023-08-20T15:21:04;34.10;50.60
1716;DHT22;855;48.824;9.220;2023-08-20T15:23:32;34.00;51.20
1716;DHT22;855;48.824;9.220;2023-08-20T15:25:59;34.10;51.10
1716;DHT22;855;48.824;9.220;2023-08-20T15:28:26;34.10;51.70
1716;DHT22;855;48.824;9.220;2023-08-20T15:30:55;34.10;50.60
1716;DHT22;855;48.824;9.220;2023-08-20T15:33:23;34.20;49.90
1716;DHT22;855;48.824;9.220;2023-08-20T15:35:50;34.20;49.20
1716;DHT22;855;48.824;9.220;2023-08-20T15:38:17;34.20;49.80
1716;DHT22;855;48.824;9.220;2023-08-20T15:40:45;34.20;50.20
1716;DHT22;855;48.824;9.220;2023-08-20T15:43:12;34.10;49.90
1716;DHT22;855;48.824;9.220;2023-08-20T15:45:40;34.10;50.20
1716;DHT22;855;48.824;9.220;2023-08-20T15:48:07;34.10;50.40
1716;DHT22;855;48.824;9.220;2023-08-20T15:50:34;34.00;50.20
1716;DHT22;855;48.824;9.220;2023-08-20T15:53:01;33.90;50.20
1716;DHT22;855;48.824;9.220;2023-08-20T15:55:28;33.80;50.80
1716;DHT22;855;48.824;9.220;2023-08-20T15:57:56;33.80;51.60
1716;DHT22;855;48.824;9.220;2023-08-20T16:00:24;33.80;51.40
1716;DHT22;855;48.824;9.220;2023-08-20T16:02:50;33.80;51.70
1716;DHT22;855;48.824;9.220;2023-08-20T16:05:18;34.00;51.60
1716;DHT22;855;48.824;9.220;2023-08-20T16:07:45;34.10;51.30
1716;DHT22;855;48.824;9.220;2023-08-20T16:10:12;34.20;50.80
1716;DHT22;855;48.824;9.220;2023-08-20T16:12:39;34.10;51.20
1716;DHT22;855;48.824;9.220;2023-08-20T16:15:09;34.20;50.60
1716;DHT22;855;48.824;9.220;2023-08-20T16:17:36;34.10;50.30
1716;DHT22;855;48.824;9.220;2023-08-20T16:20:03;34.10;50.80